Terminal Aerodrome Forecast
Issued by NWS

Home | Current Version | Previous Version | Text Only | Print | Product List | Glossary On
Versions: 1 2 3 4 5 6 7 8 9 10 11 12 13 14 15 16 17 18 19 20 21 22 23 24 25 26 27 28 29
000
FTUS42 KJAX 282300
TAFVQQ
TAF
KVQQ 282320Z 2900/2924 24010G17KT P6SM SCT040 SCT250
     FM290300 24010KT P6SM VCTS BKN035CB BKN250
      TEMPO 2903/2907 4SM -TSRA BKN030CB
     FM290700 24007KT P6SM VCSH SCT030 BKN250
     FM291200 28009KT P6SM SCT030 BKN250=

USA.gov is the U.S. government's official web portal to all federal, state and local government web resources and services.